Time;durP1;ratioP1;P1;durP2;ratioP2;P2;SDS_P1;SDS_P2;PMS_P1;PMS_P2;Temp;Humidity;BMP_temperature;BMP_pressure;BME280_temperature;BME280_humidity;BME280_pressure;Samples;Min_cycle;Max_cycle;Signal;HPM_P1;HPM_P2
2022/07/04 00:00:48;;;;;;;1999.90;999.90;;;18.00;99.90;;;;;;5076061;28;20098;-75
2022/07/04 00:03:14;;;;;;;1999.90;999.90;;;18.00;99.90;;;;;;5075951;28;20039;-70
2022/07/04 00:05:39;;;;;;;1999.90;999.90;;;17.90;99.90;;;;;;5075674;28;20028;-70
2022/07/04 00:08:05;;;;;;;1999.90;999.90;;;17.90;99.90;;;;;;5061003;28;20052;-74
2022/07/04 00:10:31;;;;;;;1999.90;999.90;;;17.80;99.90;;;;;;5055565;28;20029;-70
2022/07/04 00:12:57;;;;;;;1999.90;999.90;;;17.80;99.90;;;;;;5048647;28;20081;-74
2022/07/04 00:15:22;;;;;;;1999.90;999.90;;;17.80;99.90;;;;;;5075728;28;20025;-74
2022/07/04 00:17:49;;;;;;;1999.90;999.90;;;17.70;99.90;;;;;;5074825;28;20036;-74
2022/07/04 00:20:14;;;;;;;1999.90;999.90;;;17.70;99.90;;;;;;5071068;28;20032;-70
2022/07/04 00:22:40;;;;;;;1999.90;999.90;;;17.70;99.90;;;;;;5061715;28;20033;-74
2022/07/04 00:25:06;;;;;;;1999.90;999.90;;;17.70;99.90;;;;;;5055589;28;20107;-74
2022/07/04 00:27:32;;;;;;;1999.90;999.90;;;17.70;99.90;;;;;;5055253;28;20025;-74
2022/07/04 00:29:58;;;;;;;1999.90;999.90;;;17.70;99.90;;;;;;5070887;28;20028;-70
2022/07/04 00:32:23;;;;;;;1999.90;999.90;;;17.70;99.90;;;;;;5075214;28;20033;-70
2022/07/04 00:34:49;;;;;;;1999.90;999.90;;;17.70;99.90;;;;;;5067285;28;20032;-70
2022/07/04 00:37:15;;;;;;;1999.90;999.90;;;17.80;99.90;;;;;;5055060;28;20175;-74
2022/07/04 00:39:41;;;;;;;1999.90;999.90;;;17.80;99.90;;;;;;5073093;28;20024;-70
2022/07/04 00:42:08;;;;;;;1999.90;999.90;;;17.70;99.90;;;;;;5075272;28;20024;-74
2022/07/04 00:44:37;;;;;;;1999.90;999.90;;;17.70;99.90;;;;;;5066082;28;20070;-70
2022/07/04 00:47:04;;;;;;;1999.90;999.90;;;17.80;99.90;;;;;;5075204;28;20017;-71
2022/07/04 00:49:30;;;;;;;1999.90;999.90;;;17.80;99.90;;;;;;5075114;28;20035;-75
2022/07/04 00:51:56;;;;;;;1999.90;999.90;;;17.70;99.90;;;;;;5073242;28;20032;-74
2022/07/04 00:54:26;;;;;;;1999.90;999.90;;;17.80;99.90;;;;;;5062700;28;20021;-74
2022/07/04 00:56:53;;;;;;;1999.90;999.90;;;17.80;99.90;;;;;;5074888;28;20020;-70
2022/07/04 00:59:19;;;;;;;1999.90;999.90;;;17.70;99.90;;;;;;5074909;28;20028;-70
2022/07/04 01:01:45;;;;;;;1999.90;999.90;;;17.70;99.90;;;;;;5074732;28;20406;-74
2022/07/04 01:04:11;;;;;;;1999.90;999.90;;;17.60;99.90;;;;;;5074842;28;20027;-71
2022/07/04 01:06:37;;;;;;;1999.90;999.90;;;17.60;99.90;;;;;;5056875;28;20123;-74
2022/07/04 01:09:04;;;;;;;1999.90;999.90;;;17.60;99.90;;;;;;5074437;28;20039;-70
2022/07/04 01:11:29;;;;;;;1999.90;999.90;;;17.50;99.90;;;;;;5074351;28;20582;-74
2022/07/04 01:13:56;;;;;;;1999.90;999.90;;;17.50;99.90;;;;;;5074065;28;20050;-74
2022/07/04 01:16:24;;;;;;;1999.90;999.90;;;17.40;99.90;;;;;;5074421;28;20089;-75
2022/07/04 01:18:51;;;;;;;1999.90;999.90;;;17.40;99.90;;;;;;5073913;28;20024;-70
2022/07/04 01:21:18;;;;;;;1999.90;999.90;;;17.30;99.90;;;;;;5073929;28;20036;-75
2022/07/04 01:23:44;;;;;;;1999.90;999.90;;;17.20;99.90;;;;;;5074154;28;20383;-74
2022/07/04 01:26:10;;;;;;;1999.90;999.90;;;17.20;99.90;;;;;;5074831;28;20040;-74
2022/07/04 01:28:35;;;;;;;1999.90;999.90;;;17.10;99.90;;;;;;5074145;28;20502;-75
2022/07/04 01:31:01;;;;;;;1999.90;999.90;;;17.10;99.90;;;;;;5074421;28;20039;-74
2022/07/04 01:33:27;;;;;;;1999.90;999.90;;;17.10;99.90;;;;;;5074009;28;20055;-70
2022/07/04 01:35:52;;;;;;;1999.90;999.90;;;17.00;99.90;;;;;;5058001;28;20032;-71
2022/07/04 01:38:18;;;;;;;1999.90;999.90;;;16.90;99.90;;;;;;5060165;28;20144;-70
2022/07/04 01:40:45;;;;;;;1999.90;999.90;;;16.90;99.90;;;;;;5073866;28;20033;-74
2022/07/04 01:43:10;;;;;;;1999.90;999.90;;;16.80;99.90;;;;;;5060093;28;20028;-74
2022/07/04 01:45:39;;;;;;;1999.90;999.90;;;16.70;99.90;;;;;;5074153;28;20033;-74
2022/07/04 01:48:05;;;;;;;1999.90;999.90;;;16.70;99.90;;;;;;5073811;28;20103;-70
2022/07/04 01:50:31;;;;;;;1999.90;999.90;;;16.60;99.90;;;;;;5073811;28;20024;-70
2022/07/04 01:52:56;;;;;;;1999.90;999.90;;;16.60;99.90;;;;;;5064125;28;20025;-71
2022/07/04 01:55:22;;;;;;;1999.90;999.90;;;16.60;99.90;;;;;;5069923;28;20039;-74
2022/07/04 01:57:48;;;;;;;1999.90;999.90;;;16.50;99.90;;;;;;5064103;28;20025;-74
2022/07/04 02:02:58;;;;;;;1999.90;999.90;;;16.50;99.90;;;;;;5073789;28;20027;-70
2022/07/04 02:05:24;;;;;;;1999.90;999.90;;;16.40;99.90;;;;;;5073754;28;20024;-70
2022/07/04 02:07:50;;;;;;;1999.90;999.90;;;16.40;99.90;;;;;;5073307;28;20109;-75
2022/07/04 02:10:16;;;;;;;1999.90;999.90;;;16.30;99.90;;;;;;5073120;28;20465;-70
2022/07/04 02:15:31;;;;;;;1999.90;999.90;;;16.20;99.90;;;;;;5063007;28;20506;-70
2022/07/04 02:17:57;;;;;;;1999.90;999.90;;;16.20;99.90;;;;;;5072528;28;20499;-74
2022/07/04 02:20:23;;;;;;;1999.90;999.90;;;16.20;99.90;;;;;;5072666;28;20030;-74
2022/07/04 02:22:49;;;;;;;1999.90;999.90;;;16.10;99.90;;;;;;5071985;28;20403;-74
2022/07/04 02:25:15;;;;;;;1999.90;999.90;;;16.10;99.90;;;;;;5073414;28;20037;-70
2022/07/04 02:27:41;;;;;;;1999.90;999.90;;;16.10;99.90;;;;;;5073080;28;20024;-70
2022/07/04 02:30:07;;;;;;;1999.90;999.90;;;16.10;99.90;;;;;;5072934;28;20028;-70
2022/07/04 02:32:33;;;;;;;1999.90;999.90;;;16.00;99.90;;;;;;5072904;28;20013;-70
2022/07/04 02:34:58;;;;;;;1999.90;999.90;;;15.90;99.90;;;;;;5065134;28;20090;-74
2022/07/04 02:37:24;;;;;;;1999.90;999.90;;;15.90;99.90;;;;;;5052299;28;20052;-74
2022/07/04 02:39:49;;;;;;;1999.90;999.90;;;15.90;99.90;;;;;;5071222;28;20034;-74
2022/07/04 02:42:15;;;;;;;1999.90;999.90;;;15.80;99.90;;;;;;5072232;28;20029;-70
2022/07/04 02:44:41;;;;;;;1999.90;999.90;;;15.80;99.90;;;;;;5061167;28;20426;-74
2022/07/04 02:47:07;;;;;;;1999.90;999.90;;;15.70;99.90;;;;;;5072596;28;20021;-74
2022/07/04 02:49:33;;;;;;;1999.90;999.90;;;15.70;99.90;;;;;;5072216;28;20024;-74
2022/07/04 02:51:58;;;;;;;1999.90;999.90;;;15.60;99.90;;;;;;5071742;28;20085;-70
2022/07/04 02:54:24;;;;;;;1999.90;999.90;;;15.60;99.90;;;;;;5059958;28;20036;-70
2022/07/04 02:56:49;;;;;;;1999.90;999.90;;;15.50;99.90;;;;;;5060935;28;20021;-70
2022/07/04 02:59:15;;;;;;;1999.90;999.90;;;15.50;99.90;;;;;;5071994;28;20115;-70
2022/07/04 03:01:41;;;;;;;1999.90;999.90;;;15.40;99.90;;;;;;5071734;28;20068;-70
2022/07/04 03:04:06;;;;;;;1999.90;999.90;;;15.40;99.90;;;;;;5071991;28;20062;-70
2022/07/04 03:06:32;;;;;;;1999.90;999.90;;;15.40;99.90;;;;;;5071619;28;20048;-70
2022/07/04 03:08:57;;;;;;;1999.90;999.90;;;15.40;99.90;;;;;;5071591;28;20543;-74
2022/07/04 03:11:23;;;;;;;1999.90;999.90;;;15.30;99.90;;;;;;5071550;28;20510;-74
2022/07/04 03:13:49;;;;;;;1999.90;999.90;;;15.30;99.90;;;;;;5071821;28;20100;-74
2022/07/04 03:16:14;;;;;;;1999.90;999.90;;;15.30;99.90;;;;;;5071589;28;20035;-70
2022/07/04 03:18:40;;;;;;;1999.90;999.90;;;15.30;99.90;;;;;;5071599;28;20051;-70
2022/07/04 03:21:06;;;;;;;1999.90;999.90;;;15.30;99.90;;;;;;5062431;28;20064;-74
2022/07/04 03:23:33;;;;;;;1999.90;999.90;;;15.20;99.90;;;;;;5055493;28;20013;-74
2022/07/04 03:25:59;;;;;;;1999.90;999.90;;;15.20;99.90;;;;;;5052067;28;20025;-74
2022/07/04 03:28:26;;;;;;;1999.90;999.90;;;15.10;99.90;;;;;;5051536;28;20030;-74
2022/07/04 03:30:52;;;;;;;1999.90;999.90;;;15.10;99.90;;;;;;5072874;28;20048;-70
2022/07/04 03:33:18;;;;;;;1999.90;999.90;;;15.10;99.90;;;;;;5074823;28;20031;-70
2022/07/04 03:35:43;;;;;;;1999.90;999.90;;;15.00;99.90;;;;;;5059775;28;20021;-74
2022/07/04 03:38:09;;;;;;;1999.90;999.90;;;15.00;99.90;;;;;;5024932;28;1158212;-69
2022/07/04 03:40:35;;;;;;;1999.90;999.90;;;15.00;99.90;;;;;;5079986;28;20492;-69
2022/07/04 03:43:03;;;;;;;1999.90;999.90;;;15.00;99.90;;;;;;5057058;28;20400;-74
2022/07/04 03:45:28;;;;;;;1999.90;999.90;;;14.90;99.90;;;;;;5073016;28;20032;-70
2022/07/04 03:47:54;;;;;;;1999.90;999.90;;;14.90;99.90;;;;;;5078807;28;20021;-69
2022/07/04 03:50:20;;;;;;;1999.90;999.90;;;14.80;99.90;;;;;;5083661;28;20368;-68
2022/07/04 03:52:46;;;;;;;1999.90;999.90;;;14.80;99.90;;;;;;5078930;28;20029;-74
2022/07/04 03:55:11;;;;;;;1999.90;999.90;;;14.80;99.90;;;;;;5092059;28;20027;-74
2022/07/04 03:57:37;;;;;;;1999.90;999.90;;;14.70;99.90;;;;;;5086133;28;20103;-69
2022/07/04 04:00:04;;;;;;;1999.90;999.90;;;14.70;99.90;;;;;;5075670;28;20016;-70
2022/07/04 04:02:29;;;;;;;1999.90;999.90;;;14.70;99.90;;;;;;5070874;28;20033;-74
2022/07/04 04:07:39;;;;;;;1999.90;999.90;;;14.70;99.90;;;;;;5075841;28;20074;-70
2022/07/04 04:10:06;;;;;;;1999.90;999.90;;;14.60;99.90;;;;;;5061302;28;20025;-70
2022/07/04 04:12:31;;;;;;;1999.90;999.90;;;14.60;99.90;;;;;;5037701;28;20029;-70
2022/07/04 04:14:57;;;;;;;1999.90;999.90;;;14.60;99.90;;;;;;5073409;28;20039;-70
2022/07/04 04:17:23;;;;;;;1999.90;999.90;;;14.50;99.90;;;;;;5075488;28;20035;-74
2022/07/04 04:19:49;;;;;;;1999.90;999.90;;;14.50;99.90;;;;;;5073862;28;20037;-74
2022/07/04 04:22:14;;;;;;;1999.90;999.90;;;14.50;99.90;;;;;;5043923;28;20029;-74
2022/07/04 04:24:40;;;;;;;1999.90;999.90;;;14.40;99.90;;;;;;5055472;28;20070;-74
2022/07/04 04:27:06;;;;;;;1999.90;999.90;;;14.40;99.90;;;;;;5075660;28;20082;-74
2022/07/04 04:29:31;;;;;;;1999.90;999.90;;;14.40;99.90;;;;;;5075353;28;20017;-70
2022/07/04 04:31:57;;;;;;;1999.90;999.90;;;14.40;99.90;;;;;;5075594;28;20040;-70
2022/07/04 04:34:23;;;;;;;1999.90;999.90;;;14.30;99.90;;;;;;5070831;28;20036;-70
2022/07/04 04:36:48;;;;;;;1999.90;999.90;;;14.30;99.90;;;;;;5063626;28;20113;-70
2022/07/04 04:39:14;;;;;;;1999.90;999.90;;;14.30;99.90;;;;;;5074755;28;20025;-70
2022/07/04 04:41:40;;;;;;;1999.90;999.90;;;14.30;99.90;;;;;;5067019;28;20021;-74
2022/07/04 04:44:06;;;;;;;1999.90;999.90;;;14.30;99.90;;;;;;5067555;28;20028;-74
2022/07/04 04:46:32;;;;;;;1999.90;999.90;;;14.30;99.90;;;;;;5055045;28;20021;-74
2022/07/04 04:48:57;;;;;;;1999.90;999.90;;;14.30;99.90;;;;;;5054927;28;20096;-70
2022/07/04 04:51:23;;;;;;;1999.90;999.90;;;14.30;99.90;;;;;;5056232;28;20033;-70
2022/07/04 04:53:48;;;;;;;1999.90;999.90;;;14.30;99.90;;;;;;5073985;28;20028;-70
2022/07/04 04:56:14;;;;;;;1999.90;999.90;;;14.30;99.90;;;;;;5055108;28;20408;-74
2022/07/04 04:58:40;;;;;;;1999.90;999.90;;;14.30;99.90;;;;;;5054765;28;20032;-74
2022/07/04 05:01:06;;;;;;;1999.90;999.90;;;14.30;99.90;;;;;;5050765;28;20549;-69
2022/07/04 05:03:31;;;;;;;1999.90;999.90;;;14.30;99.90;;;;;;5074778;28;20021;-70
2022/07/04 05:05:57;;;;;;;1999.90;999.90;;;14.30;99.90;;;;;;5074755;28;20522;-74
2022/07/04 05:08:26;;;;;;;1999.90;999.90;;;14.30;99.90;;;;;;5074235;28;20510;-70
2022/07/04 05:10:52;;;;;;;1999.90;999.90;;;14.20;99.90;;;;;;5074659;28;20048;-70
2022/07/04 05:13:19;;;;;;;1999.90;999.90;;;14.20;99.90;;;;;;5081327;28;20048;-74
2022/07/04 05:15:46;;;;;;;1999.90;999.90;;;14.30;99.90;;;;;;5054538;28;20033;-69
2022/07/04 05:18:12;;;;;;;1999.90;999.90;;;14.30;99.90;;;;;;5053986;28;20025;-70
2022/07/04 05:20:37;;;;;;;1999.90;999.90;;;14.20;99.90;;;;;;5064690;28;20395;-74
2022/07/04 05:23:03;;;;;;;1999.90;999.90;;;14.30;99.90;;;;;;5072848;28;20025;-74
2022/07/04 05:25:29;;;;;;;1999.90;999.90;;;14.30;99.90;;;;;;5074552;28;20115;-74
2022/07/04 05:27:54;;;;;;;1999.90;999.90;;;14.30;99.90;;;;;;5074052;28;20105;-70
2022/07/04 05:30:20;;;;;;;1999.90;999.90;;;14.40;99.90;;;;;;5073709;28;20033;-70
2022/07/04 05:32:45;;;;;;;1999.90;999.90;;;14.40;99.90;;;;;;5073816;28;20059;-74
2022/07/04 05:35:11;;;;;;;1999.90;999.90;;;14.40;99.90;;;;;;5072197;28;20033;-70
2022/07/04 05:37:37;;;;;;;1999.90;999.90;;;14.40;99.90;;;;;;5070003;28;20055;-74
2022/07/04 05:40:03;;;;;;;1999.90;999.90;;;14.40;99.90;;;;;;5054335;28;20033;-70
2022/07/04 05:42:29;;;;;;;1999.90;999.90;;;14.40;99.90;;;;;;5056906;28;20507;-70
2022/07/04 05:44:55;;;;;;;1999.90;999.90;;;14.40;99.90;;;;;;5064225;28;20025;-74
2022/07/04 05:47:24;;;;;;;1999.90;999.90;;;14.50;99.90;;;;;;5073229;28;20028;-75
2022/07/04 05:49:50;;;;;;;1999.90;999.90;;;14.50;99.90;;;;;;5073408;28;20025;-74
2022/07/04 05:52:16;;;;;;;1999.90;999.90;;;14.60;99.90;;;;;;5050000;28;20025;-75
2022/07/04 05:54:42;;;;;;;1999.90;999.90;;;14.70;99.90;;;;;;5062670;28;20086;-70
2022/07/04 05:57:08;;;;;;;1999.90;999.90;;;14.70;99.90;;;;;;5053293;28;20028;-70
2022/07/04 05:59:34;;;;;;;1999.90;999.90;;;14.80;99.90;;;;;;5053473;28;20403;-75
2022/07/04 06:01:59;;;;;;;1999.90;999.90;;;15.00;99.90;;;;;;5070283;28;20479;-71
2022/07/04 06:04:25;;;;;;;1999.90;999.90;;;15.30;99.90;;;;;;5071952;28;20032;-76
2022/07/04 06:06:51;;;;;;;1999.90;999.90;;;15.50;99.90;;;;;;5072923;28;20028;-70
2022/07/04 06:09:17;;;;;;;1999.90;999.90;;;15.70;99.90;;;;;;5054995;28;20430;-70
2022/07/04 06:11:43;;;;;;;1999.90;999.90;;;15.70;99.90;;;;;;5055039;28;20070;-70
2022/07/04 06:14:08;;;;;;;1999.90;999.90;;;15.80;99.90;;;;;;5072000;28;20071;-70
2022/07/04 06:16:34;;;;;;;1999.90;999.90;;;15.80;99.90;;;;;;5072585;28;20020;-75
2022/07/04 06:18:59;;;;;;;1999.90;999.90;;;15.90;99.90;;;;;;5062829;28;20094;-75
2022/07/04 06:21:25;;;;;;;1999.90;999.90;;;15.90;99.90;;;;;;5066530;28;20557;-71
2022/07/04 06:23:51;;;;;;;1999.90;999.90;;;15.80;99.90;;;;;;5051941;28;20017;-70
2022/07/04 06:26:16;;;;;;;1999.90;999.90;;;15.80;99.90;;;;;;5069912;28;20395;-70
2022/07/04 06:28:42;;;;;;;1999.90;999.90;;;15.90;99.90;;;;;;5063821;28;20074;-73
2022/07/04 06:31:08;;;;;;;1999.90;999.90;;;16.00;99.90;;;;;;5070693;28;20455;-75
2022/07/04 06:35:44;;;;;;;1999.90;999.90;;;16.20;99.90;;;;;;5048692;28;20043;-70
2022/07/04 06:36:19;;;;;;;1999.90;999.90;;;16.40;99.90;;;;;;5072419;28;20043;-71
2022/07/04 06:38:45;;;;;;;1999.90;999.90;;;16.60;99.90;;;;;;5062413;28;20119;-71
2022/07/04 06:41:11;;;;;;;1999.90;999.90;;;16.70;99.90;;;;;;5059246;28;20021;-75
2022/07/04 06:43:36;;;;;;;1999.90;999.90;;;16.80;99.90;;;;;;5061459;28;20492;-76
2022/07/04 06:46:02;;;;;;;1999.90;999.90;;;16.90;99.90;;;;;;5071930;28;20090;-71
2022/07/04 06:48:28;;;;;;;1999.90;999.90;;;16.90;99.90;;;;;;5072609;28;20028;-70
2022/07/04 06:50:54;;;;;;;1999.90;999.90;;;16.90;99.90;;;;;;5071714;28;20048;-70
2022/07/04 06:53:20;;;;;;;1999.90;999.90;;;16.90;99.90;;;;;;5058154;28;20079;-76
2022/07/04 06:55:46;;;;;;;1999.90;999.90;;;17.10;99.90;;;;;;5070600;28;20025;-76
2022/07/04 06:58:12;;;;;;;1999.90;999.90;;;17.20;99.90;;;;;;5071170;28;20036;-75
2022/07/04 07:00:38;;;;;;;1999.90;999.90;;;17.30;99.90;;;;;;5070113;28;20391;-71
2022/07/04 07:03:04;;;;;;;1999.90;999.90;;;17.20;99.90;;;;;;5068219;28;20101;-75
2022/07/04 07:05:31;;;;;;;1999.90;999.90;;;17.30;99.90;;;;;;5048271;28;20025;-71
2022/07/04 07:07:56;;;;;;;1999.90;999.90;;;17.40;99.90;;;;;;5065315;28;20070;-71
2022/07/04 07:10:22;;;;;;;1999.90;999.90;;;17.50;99.90;;;;;;5060216;28;20024;-75
2022/07/04 07:12:48;;;;;;;1999.90;999.90;;;17.60;99.90;;;;;;5067310;28;20035;-71
2022/07/04 07:15:13;;;;;;;1999.90;999.90;;;17.70;99.90;;;;;;5054154;28;20031;-71
2022/07/04 07:17:42;;;;;;;1999.90;999.90;;;18.00;99.90;;;;;;5064828;28;20037;-75
2022/07/04 07:20:09;;;;;;;1999.90;999.90;;;18.10;99.90;;;;;;5067579;28;20028;-74
2022/07/04 07:22:34;;;;;;;1999.90;999.90;;;18.30;99.90;;;;;;5062238;28;20060;-75
2022/07/04 07:25:00;;;;;;;1999.90;999.90;;;18.50;99.90;;;;;;5066777;28;20475;-70
2022/07/04 07:27:26;;;;;;;1999.90;999.90;;;18.70;99.90;;;;;;5066173;28;20033;-71
2022/07/04 07:29:51;;;;;;;1999.90;999.90;;;19.00;99.90;;;;;;5066145;28;20024;-71
2022/07/04 07:32:17;;;;;;;1999.90;999.90;;;19.20;99.90;;;;;;5069268;28;20024;-76
2022/07/04 07:34:43;;;;;;;1999.90;999.90;;;19.50;99.90;;;;;;5065043;28;20118;-71
2022/07/04 07:37:09;;;;;;;1999.90;999.90;;;19.90;99.90;;;;;;5068778;28;20396;-76
2022/07/04 07:39:35;;;;;;;1999.90;999.90;;;21.80;99.90;;;;;;5067332;28;20035;-76
2022/07/04 07:42:01;;;;;;;1999.90;999.90;;;24.10;97.90;;;;;;5058895;28;20040;-76
2022/07/04 07:44:27;;;;;;;1999.90;999.90;;;24.30;96.20;;;;;;5043668;28;20025;-76
2022/07/04 07:46:52;;;;;;;1999.90;999.90;;;24.40;96.00;;;;;;5058822;28;20031;-72
2022/07/04 07:49:18;;;;;;;1999.90;999.90;;;23.40;96.40;;;;;;5047458;28;20025;-75
2022/07/04 07:51:44;;;;;;;1999.90;999.90;;;22.70;97.60;;;;;;5043069;28;20055;-72
2022/07/04 07:54:10;;;;;;;1999.90;999.90;;;24.00;96.80;;;;;;5056298;28;20048;-71
2022/07/04 07:56:35;;;;;;;1999.90;999.90;;;24.60;95.50;;;;;;5069499;28;20033;-76
2022/07/04 07:59:01;;;;;;;1999.90;999.90;;;24.60;94.90;;;;;;5068333;28;20128;-71
2022/07/04 08:01:27;;;;;;;1999.90;999.90;;;25.90;94.40;;;;;;5064075;28;20107;-71
2022/07/04 08:06:37;;;;;;;1999.90;999.90;;;26.50;92.70;;;;;;5065964;28;20498;-72
2022/07/04 08:09:03;;;;;;;1999.90;999.90;;;26.70;92.50;;;;;;5057964;28;20024;-76
2022/07/04 08:11:29;;;;;;;1999.90;999.90;;;26.00;92.80;;;;;;5067239;28;20040;-72
2022/07/04 08:13:54;;;;;;;1999.90;999.90;;;24.90;94.10;;;;;;5060961;28;20028;-75
2022/07/04 08:16:20;;;;;;;1999.90;999.90;;;24.20;94.30;;;;;;5067966;28;20087;-71
2022/07/04 08:18:46;;;;;;;1999.90;999.90;;;25.50;94.60;;;;;;5070597;28;20047;-71
2022/07/04 08:21:13;;;;;;;1999.90;999.90;;;24.60;94.00;;;;;;5068401;28;20132;-71
2022/07/04 08:23:40;;;;;;;1999.90;999.90;;;23.60;94.90;;;;;;5066976;28;20031;-76
2022/07/04 08:26:06;;;;;;;1999.90;999.90;;;23.40;95.70;;;;;;5054916;28;20074;-71
2022/07/04 08:28:31;;;;;;;1999.90;999.90;;;23.10;96.00;;;;;;5054996;28;20430;-76
2022/07/04 08:30:58;;;;;;;1999.90;999.90;;;23.70;95.60;;;;;;5061065;28;20044;-72
2022/07/04 08:33:24;;;;;;;1999.90;999.90;;;27.00;92.90;;;;;;5060540;28;20112;-72
2022/07/04 08:35:50;;;;;;;1999.90;999.90;;;29.00;91.40;;;;;;5063350;28;20024;-69
2022/07/04 08:38:17;;;;;;;1999.90;999.90;;;30.70;90.20;;;;;;5064584;28;20056;-74
2022/07/04 08:40:43;;;;;;;1999.90;999.90;;;29.80;89.20;;;;;;5058975;28;20495;-71
2022/07/04 08:43:13;;;;;;;1999.90;999.90;;;27.40;90.70;;;;;;5063276;28;20025;-72
2022/07/04 08:45:40;;;;;;;1999.90;999.90;;;26.10;92.50;;;;;;5059578;28;20043;-71
2022/07/04 08:48:08;;;;;;;1999.90;999.90;;;25.20;93.00;;;;;;5067349;28;20039;-76
2022/07/04 08:50:36;;;;;;;1999.90;999.90;;;24.50;93.60;;;;;;5065303;28;20028;-72
2022/07/04 08:53:06;;;;;;;1999.90;999.90;;;24.90;93.40;;;;;;5061596;28;20067;-71
2022/07/04 08:58:31;;;;;;;1999.90;999.90;;;25.00;93.40;;;;;;5059572;28;20030;-72
2022/07/04 09:01:02;;;;;;;1999.90;999.90;;;24.70;93.60;;;;;;5062379;28;20059;-75
2022/07/04 09:03:29;;;;;;;1999.90;999.90;;;25.00;93.80;;;;;;5064722;28;20107;-76
2022/07/04 09:05:56;;;;;;;1999.90;999.90;;;25.90;93.00;;;;;;5062935;28;20486;-71
2022/07/04 09:08:22;;;;;;;1999.90;999.90;;;27.30;92.20;;;;;;5070742;28;20046;-75
2022/07/04 09:10:49;;;;;;;1999.90;999.90;;;27.40;91.50;;;;;;5054112;28;20104;-72
2022/07/04 09:13:15;;;;;;;1999.90;999.90;;;27.90;91.90;;;;;;5062296;28;20040;-71
2022/07/04 09:15:42;;;;;;;1999.90;999.90;;;27.90;90.80;;;;;;5066742;28;20056;-71
2022/07/04 09:18:21;;;;;;;1999.90;999.90;;;27.90;90.90;;;;;;5065892;28;20495;-76
2022/07/04 09:20:47;;;;;;;1999.90;999.90;;;28.50;90.60;;;;;;5067603;28;20037;-76
2022/07/04 09:23:28;;;;;;;1999.90;999.90;;;29.50;89.00;;;;;;5059680;28;20115;-71
2022/07/04 09:26:19;;;;;;;1999.90;999.90;;;29.00;89.10;;;;;;5042903;28;20037;-72
2022/07/04 09:28:52;;;;;;;1999.90;999.90;;;27.80;90.20;;;;;;5052483;28;20028;-77
2022/07/04 09:31:22;;;;;;;1999.90;999.90;;;26.70;91.10;;;;;;5061808;28;20418;-77
2022/07/04 09:33:54;;;;;;;1999.90;999.90;;;27.20;90.90;;;;;;5068643;28;20028;-76
2022/07/04 09:36:25;;;;;;;1999.90;999.90;;;28.50;90.30;;;;;;5060824;28;20040;-77
2022/07/04 09:39:12;;;;;;;1999.90;999.90;;;29.00;89.40;;;;;;5070897;28;20021;-72
2022/07/04 09:41:57;;;;;;;1999.90;999.90;;;30.60;89.30;;;;;;5066681;28;20036;-76
2022/07/04 09:44:25;;;;;;;1999.90;999.90;;;32.90;84.10;;;;;;5072096;28;20471;-75
2022/07/04 09:46:51;;;;;;;1999.90;999.90;;;33.30;81.60;;;;;;5062388;28;20016;-74
2022/07/04 09:49:17;;;;;;;1999.90;999.90;;;33.50;81.80;;;;;;5060979;28;20025;-70
2022/07/04 09:51:45;;;;;;;1999.90;999.90;;;34.00;81.40;;;;;;5053544;28;20082;-73
2022/07/04 09:54:25;;;;;;;1999.90;999.90;;;34.10;80.10;;;;;;5062491;28;20032;-75
2022/07/04 09:56:57;;;;;;;1999.90;999.90;;;34.50;79.10;;;;;;5054496;28;20108;-75
2022/07/04 09:59:25;;;;;;;1999.90;999.90;;;34.50;79.30;;;;;;5059494;28;20499;-75
2022/07/04 10:01:51;;;;;;;1999.90;999.90;;;34.50;79.10;;;;;;5062349;28;20024;-73
2022/07/04 10:04:17;;;;;;;1999.90;999.90;;;34.70;78.80;;;;;;5053230;28;20040;-69
2022/07/04 10:06:44;;;;;;;1999.90;999.90;;;34.90;79.10;;;;;;5059816;28;20017;-75
2022/07/04 10:09:13;;;;;;;1999.90;999.90;;;34.90;78.80;;;;;;5055616;28;20013;-75
2022/07/04 10:11:40;;;;;;;1999.90;999.90;;;34.60;78.00;;;;;;5062245;28;20114;-75
2022/07/04 10:14:08;;;;;;;1999.90;999.90;;;34.50;79.40;;;;;;5068941;28;20029;-72
2022/07/04 10:16:34;;;;;;;1999.90;999.90;;;34.40;80.60;;;;;;5061506;28;20036;-70
2022/07/04 10:19:00;;;;;;;1999.90;999.90;;;34.30;80.10;;;;;;5066318;28;20031;-75
2022/07/04 10:21:26;;;;;;;1999.90;999.90;;;34.50;77.60;;;;;;5061869;28;20499;-74
2022/07/04 10:23:52;;;;;;;1999.90;999.90;;;34.10;78.80;;;;;;5057320;28;20460;-75
2022/07/04 10:26:19;;;;;;;1999.90;999.90;;;34.30;78.00;;;;;;5057306;28;20487;-69
2022/07/04 10:28:47;;;;;;;1999.90;999.90;;;34.60;77.80;;;;;;5060774;28;20103;-69
2022/07/04 10:31:14;;;;;;;1999.90;999.90;;;34.80;77.50;;;;;;5062389;28;20155;-75
2022/07/04 10:33:40;;;;;;;1999.90;999.90;;;34.60;76.80;;;;;;5060804;28;20040;-69
2022/07/04 10:36:20;;;;;;;1999.90;999.90;;;34.30;76.70;;;;;;5065560;28;20025;-74
2022/07/04 10:38:54;;;;;;;1999.90;999.90;;;34.10;77.50;;;;;;5063858;28;20024;-70
2022/07/04 10:41:22;;;;;;;1999.90;999.90;;;34.20;77.70;;;;;;5058503;28;20104;-69
2022/07/04 10:43:48;;;;;;;1999.90;999.90;;;34.30;76.60;;;;;;5059244;28;20116;-75
2022/07/04 10:46:19;;;;;;;1999.90;999.90;;;34.00;77.20;;;;;;5066080;28;20111;-73
2022/07/04 10:49:11;;;;;;;1999.90;999.90;;;34.00;76.10;;;;;;5060534;28;20053;-75
2022/07/04 10:51:43;;;;;;;1999.90;999.90;;;34.50;77.20;;;;;;5055866;28;20040;-73
2022/07/04 10:54:39;;;;;;;1999.90;999.90;;;34.70;76.90;;;;;;5059370;28;20036;-69
2022/07/04 10:57:22;;;;;;;1999.90;999.90;;;35.20;76.50;;;;;;5045387;28;20037;-75
2022/07/04 10:59:54;;;;;;;1999.90;999.90;;;35.30;76.60;;;;;;5063264;28;20116;-75
2022/07/04 11:02:22;;;;;;;1999.90;999.90;;;35.40;74.90;;;;;;5064761;28;20100;-75
2022/07/04 11:05:05;;;;;;;1999.90;999.90;;;34.90;74.80;;;;;;5061420;28;20108;-75
2022/07/04 11:07:37;;;;;;;1999.90;999.90;;;34.30;75.90;;;;;;5055073;28;20056;-70
2022/07/04 11:10:33;;;;;;;1999.90;999.90;;;34.50;75.90;;;;;;5061054;28;20025;-75
2022/07/04 11:12:57;;;;;;;1999.90;999.90;;;34.50;75.60;;;;;;5056023;28;20047;-74
2022/07/04 11:15:28;;;;;;;1999.90;999.90;;;33.90;75.80;;;;;;5065727;28;20028;-75
2022/07/04 11:18:10;;;;;;;1999.90;999.90;;;33.90;76.30;;;;;;5054962;28;20054;-74
2022/07/04 11:20:39;;;;;;;1999.90;999.90;;;34.40;75.90;;;;;;5048734;28;20035;-69
2022/07/04 11:23:10;;;;;;;1999.90;999.90;;;34.60;74.90;;;;;;5054007;28;20024;-74
2022/07/04 11:25:37;;;;;;;1999.90;999.90;;;34.60;74.20;;;;;;5051183;28;20081;-76
2022/07/04 11:28:22;;;;;;;1999.90;999.90;;;34.40;75.60;;;;;;5048799;28;20434;-75
2022/07/04 11:30:52;;;;;;;1999.90;999.90;;;34.80;74.70;;;;;;5061361;28;20028;-75
2022/07/04 11:33:20;;;;;;;1999.90;999.90;;;33.70;74.70;;;;;;5056090;28;20032;-70
2022/07/04 11:36:08;;;;;;;1999.90;999.90;;;32.70;76.50;;;;;;5054424;28;20029;-76
2022/07/04 11:38:47;;;;;;;1999.90;999.90;;;32.60;76.10;;;;;;5049238;28;20033;-70
2022/07/04 11:46:46;;;;;;;1999.90;999.90;;;34.00;77.30;;;;;;5067853;28;20031;-70
2022/07/04 11:49:12;;;;;;;1999.90;999.90;;;34.50;75.90;;;;;;5064730;28;20025;-77
2022/07/04 11:51:47;;;;;;;1999.90;999.90;;;34.00;75.10;;;;;;5073521;28;20035;-72
2022/07/04 11:54:12;;;;;;;1999.90;999.90;;;33.50;75.40;;;;;;5072424;28;20552;-77
2022/07/04 11:56:38;;;;;;;1999.90;999.90;;;33.10;76.30;;;;;;5072653;28;20052;-76
2022/07/04 11:59:15;;;;;;;1999.90;999.90;;;33.50;76.30;;;;;;5073155;28;20035;-71
2022/07/04 12:01:43;;;;;;;1999.90;999.90;;;33.70;75.30;;;;;;5068475;28;20499;-76
2022/07/04 12:04:19;;;;;;;1999.90;999.90;;;33.50;75.30;;;;;;5042273;28;20036;-77
2022/07/04 12:06:47;;;;;;;1999.90;999.90;;;33.10;76.40;;;;;;5062231;28;20776;-77
2022/07/04 12:09:16;;;;;;;1999.90;999.90;;;33.60;75.20;;;;;;5066998;28;20044;-78
2022/07/04 12:11:57;;;;;;;1999.90;999.90;;;33.50;74.80;;;;;;5069728;28;20059;-70
2022/07/04 12:14:24;;;;;;;1999.90;999.90;;;33.60;74.90;;;;;;5062782;28;20025;-71
2022/07/04 12:17:07;;;;;;;1999.90;999.90;;;33.70;75.20;;;;;;5067809;28;20020;-71
2022/07/04 12:19:33;;;;;;;1999.90;999.90;;;33.50;75.20;;;;;;5064347;28;20051;-75